Time;durP1;ratioP1;P1;durP2;ratioP2;P2;SDS_P1;SDS_P2;PMS_P1;PMS_P2;Temp;Humidity;BMP_temperature;BMP_pressure;BME280_temperature;BME280_humidity;BME280_pressure;Samples;Min_cycle;Max_cycle;Signal;HPM_P1;HPM_P2
2023/10/09 00:00:55;;;;;;;0.40;0.20;;;;;;;18.46;63.29;95699.75;5134580;27;20839;-58
2023/10/09 00:03:24;;;;;;;0.50;0.40;;;;;;;18.04;63.72;95686.91;5135019;27;20450;-59
2023/10/09 00:05:53;;;;;;;0.40;0.30;;;;;;;17.65;65.02;95688.41;5134198;27;20522;-59
2023/10/09 00:08:26;;;;;;;0.40;0.30;;;;;;;18.09;63.60;95679.50;5125957;27;20997;-60
2023/10/09 00:10:57;;;;;;;0.50;0.30;;;;;;;17.56;65.86;95697.44;5135187;27;20862;-59
2023/10/09 00:13:30;;;;;;;0.57;0.37;;;;;;;17.29;68.17;95703.66;5134928;27;20430;-59
2023/10/09 00:16:14;;;;;;;3.03;0.57;;;;;;;17.32;67.86;95697.72;5134674;27;20444;-59
2023/10/09 00:18:46;;;;;;;0.60;0.50;;;;;;;16.87;68.43;95647.81;5134607;27;20446;-59
2023/10/09 00:21:15;;;;;;;0.40;0.30;;;;;;;17.45;67.08;95696.09;5135960;27;20442;-59
2023/10/09 00:23:44;;;;;;;0.63;0.50;;;;;;;17.35;67.54;95707.84;5137510;27;20481;-59
2023/10/09 00:26:16;;;;;;;0.40;0.30;;;;;;;17.43;67.77;95699.06;5134579;27;20434;-59
2023/10/09 00:28:47;;;;;;;0.60;0.40;;;;;;;17.44;67.83;95702.53;5134869;27;20788;-59
2023/10/09 00:31:26;;;;;;;1.33;0.50;;;;;;;17.30;68.21;95699.09;5134669;27;20439;-59
2023/10/09 00:34:01;;;;;;;0.40;0.30;;;;;;;17.01;69.63;95696.78;5107735;27;20434;-59
2023/10/09 00:36:30;;;;;;;0.97;0.50;;;;;;;17.20;69.35;95705.50;5133915;27;20442;-59
2023/10/09 00:39:05;;;;;;;0.60;0.30;;;;;;;17.51;68.08;95698.34;5134028;27;20434;-59
2023/10/09 00:41:35;;;;;;;0.40;0.20;;;;;;;17.16;69.40;95699.13;5134190;27;20439;-59
2023/10/09 00:44:07;;;;;;;1.53;0.40;;;;;;;17.34;68.88;95710.78;5134364;27;20438;-59
2023/10/09 00:46:42;;;;;;;0.47;0.27;;;;;;;17.48;68.69;95698.94;5133761;27;20473;-59
2023/10/09 00:49:10;;;;;;;0.83;0.77;;;;;;;17.57;67.94;95697.16;5134079;27;20521;-59
2023/10/09 00:51:56;;;;;;;0.40;0.20;;;;;;;17.67;67.38;95702.28;5133827;27;20836;-59
2023/10/09 00:54:28;;;;;;;0.50;0.20;;;;;;;17.67;66.79;95694.25;5133747;27;20446;-59
2023/10/09 00:57:06;;;;;;;0.87;0.53;;;;;;;17.60;66.77;95691.19;5133782;27;20550;-60
2023/10/09 00:59:38;;;;;;;0.77;0.70;;;;;;;17.57;67.06;95672.25;5133205;27;20517;-59
2023/10/09 01:02:07;;;;;;;0.40;0.30;;;;;;;17.75;66.51;95690.84;5133914;27;20446;-58
2023/10/09 01:04:41;;;;;;;0.73;0.70;;;;;;;17.56;67.73;95682.16;5133861;27;20434;-59
2023/10/09 01:07:15;;;;;;;0.50;0.30;;;;;;;17.09;70.07;95690.72;5133594;27;20510;-58
2023/10/09 01:09:44;;;;;;;0.40;0.30;;;;;;;17.31;69.74;95679.25;5133988;27;20433;-59
2023/10/09 01:12:17;;;;;;;0.50;0.20;;;;;;;17.15;70.12;95679.56;5133209;27;20521;-58
2023/10/09 01:14:52;;;;;;;0.40;0.20;;;;;;;17.33;69.04;95677.84;5133788;27;20441;-58
2023/10/09 01:17:35;;;;;;;0.40;0.30;;;;;;;17.55;67.91;95690.53;5132992;27;20505;-58
2023/10/09 01:20:14;;;;;;;0.40;0.20;;;;;;;17.72;66.55;95694.13;5133123;27;20452;-58
2023/10/09 01:22:44;;;;;;;0.40;0.30;;;;;;;17.65;66.91;95691.06;5134008;27;20426;-59
2023/10/09 01:25:15;;;;;;;0.40;0.20;;;;;;;17.32;68.77;95686.19;5132912;27;20952;-59
2023/10/09 01:27:44;;;;;;;2.20;0.40;;;;;;;17.30;69.72;95691.88;5133332;27;20525;-59
2023/10/09 01:30:14;;;;;;;0.50;0.30;;;;;;;16.73;71.89;95695.22;5133283;27;20434;-59
2023/10/09 01:32:44;;;;;;;4.63;0.33;;;;;;;16.50;74.00;95692.41;5133412;27;20438;-58
2023/10/09 01:35:21;;;;;;;1.33;0.50;;;;;;;15.99;78.11;95710.47;5133479;27;20431;-58
2023/10/09 01:37:51;;;;;;;0.60;0.60;;;;;;;15.62;83.44;95711.34;5133246;27;20523;-59
2023/10/09 01:40:35;;;;;;;0.40;0.30;;;;;;;15.89;83.21;95707.94;5132654;27;20855;-58
2023/10/09 01:43:04;;;;;;;2.13;1.83;;;;;;;16.13;82.02;95708.63;5133062;27;20517;-58
2023/10/09 01:45:41;;;;;;;0.40;0.30;;;;;;;16.33;80.62;95710.13;5132918;27;20442;-58
2023/10/09 01:48:12;;;;;;;1.70;0.57;;;;;;;16.39;79.70;95725.03;5133047;27;20434;-58
2023/10/09 01:50:42;;;;;;;0.47;0.37;;;;;;;16.68;77.77;95725.56;5132879;27;20934;-58
2023/10/09 01:53:17;;;;;;;3.07;0.70;;;;;;;16.16;81.10;95721.41;5132607;27;20432;-58
2023/10/09 01:55:47;;;;;;;0.50;0.33;;;;;;;15.63;84.65;95726.28;5132696;27;20485;-58
2023/10/09 01:58:24;;;;;;;0.50;0.30;;;;;;;15.57;86.63;95722.09;5105429;27;21000;-58
2023/10/09 02:00:55;;;;;;;0.80;0.53;;;;;;;15.88;84.59;95725.09;5132942;27;20805;-58
2023/10/09 02:03:29;;;;;;;0.40;0.30;;;;;;;16.02;83.08;95727.78;5132578;27;20440;-58
2023/10/09 02:05:59;;;;;;;0.40;0.30;;;;;;;15.93;82.77;95741.06;5132541;27;20437;-58
2023/10/09 02:08:29;;;;;;;0.80;0.30;;;;;;;15.71;84.32;95738.22;5132426;27;20474;-58
2023/10/09 02:11:02;;;;;;;0.77;0.77;;;;;;;15.90;83.97;95746.97;5132539;27;20438;-58
2023/10/09 02:13:34;;;;;;;0.40;0.30;;;;;;;16.37;79.90;95751.25;5132809;28;20890;-58
2023/10/09 02:16:14;;;;;;;0.50;0.40;;;;;;;16.52;79.08;95745.66;5132402;28;20446;-58
2023/10/09 02:18:53;;;;;;;0.50;0.30;;;;;;;16.67;77.56;95744.59;5132466;28;20466;-57
2023/10/09 02:21:32;;;;;;;0.60;0.60;;;;;;;16.41;78.99;95736.22;5132925;27;20787;-57
2023/10/09 02:24:08;;;;;;;0.40;0.30;;;;;;;16.59;77.39;95742.59;5133321;27;20804;-57
2023/10/09 02:29:26;;;;;;;0.70;0.70;;;;;;;16.61;77.59;95751.13;5117060;27;20511;-58
2023/10/09 02:32:00;;;;;;;0.43;0.27;;;;;;;16.49;78.25;95740.88;5136270;27;20488;-57
2023/10/09 02:34:38;;;;;;;0.40;0.30;;;;;;;16.40;78.99;95745.31;5136388;27;20866;-57
2023/10/09 02:37:11;;;;;;;0.40;0.30;;;;;;;16.55;78.63;95745.06;5136818;27;20430;-57
2023/10/09 02:39:43;;;;;;;0.40;0.30;;;;;;;16.38;78.42;95747.50;5135603;27;20538;-57
2023/10/09 02:42:23;;;;;;;0.50;0.40;;;;;;;16.39;78.85;95747.19;5123985;27;20813;-57
2023/10/09 02:44:52;;;;;;;0.50;0.30;;;;;;;15.98;80.10;95759.69;5136058;27;20514;-57
2023/10/09 02:47:24;;;;;;;0.50;0.30;;;;;;;15.47;84.70;95764.19;5135988;27;20489;-58
2023/10/09 02:50:00;;;;;;;1.00;0.90;;;;;;;15.35;86.09;95755.78;5135714;27;20439;-58
2023/10/09 02:52:34;;;;;;;0.40;0.20;;;;;;;15.77;83.66;95758.41;5135945;27;20441;-59
2023/10/09 02:55:08;;;;;;;0.50;0.40;;;;;;;16.02;81.74;95747.31;5128536;27;20805;-58
2023/10/09 02:57:38;;;;;;;0.50;0.37;;;;;;;16.21;80.11;95750.75;5130940;27;20505;-57
2023/10/09 03:00:18;;;;;;;0.50;0.40;;;;;;;16.13;80.69;95756.75;5136123;27;20521;-56
2023/10/09 03:02:49;;;;;;;0.40;0.20;;;;;;;16.35;79.74;95759.59;5135929;27;20438;-57
2023/10/09 03:05:20;;;;;;;0.40;0.30;;;;;;;16.16;80.32;95752.72;5136170;27;20525;-57
2023/10/09 03:07:52;;;;;;;0.40;0.30;;;;;;;16.30;79.08;95753.53;5135064;27;20477;-57
2023/10/09 03:10:21;;;;;;;0.40;0.20;;;;;;;16.35;78.37;95742.72;5136060;27;20430;-58
2023/10/09 03:12:53;;;;;;;1.70;0.40;;;;;;;16.34;77.83;95751.88;5109546;27;20431;-57
2023/10/09 03:15:21;;;;;;;0.50;0.30;;;;;;;16.37;78.64;95772.66;5135709;27;20525;-57
2023/10/09 03:17:50;;;;;;;2.03;0.30;;;;;;;16.30;79.43;95774.91;5135835;27;20445;-57
2023/10/09 03:20:18;;;;;;;0.50;0.40;;;;;;;16.22;78.57;95773.72;5135729;27;20442;-55
2023/10/09 03:22:48;;;;;;;0.40;0.20;;;;;;;16.13;78.80;95755.97;5135887;27;20438;-56
2023/10/09 03:25:17;;;;;;;0.60;0.57;;;;;;;15.99;80.48;95761.25;5135243;27;20434;-55
2023/10/09 03:27:46;;;;;;;0.70;0.70;;;;;;;15.99;79.56;95755.91;5135069;27;20649;-56
2023/10/09 03:30:22;;;;;;;0.40;0.20;;;;;;;15.68;81.54;95760.16;5135707;27;20434;-56
2023/10/09 03:32:52;;;;;;;2.57;0.30;;;;;;;15.66;82.69;95773.78;5135332;27;20441;-55
2023/10/09 03:35:25;;;;;;;0.40;0.30;;;;;;;15.72;82.42;95774.50;5134701;27;20442;-56
2023/10/09 03:37:57;;;;;;;0.40;0.30;;;;;;;15.83;81.85;95773.28;5135124;27;20784;-56
2023/10/09 03:40:25;;;;;;;0.50;0.30;;;;;;;15.71;82.59;95765.69;5134929;27;20435;-55
2023/10/09 03:42:54;;;;;;;1.80;0.33;;;;;;;15.10;82.52;95669.59;5134941;27;20438;-56
2023/10/09 03:45:27;;;;;;;0.50;0.40;;;;;;;15.64;83.92;95759.13;5109188;27;20446;-56
2023/10/09 03:48:02;;;;;;;1.80;0.47;;;;;;;15.61;83.22;95781.88;5134788;27;20525;-56
2023/10/09 03:50:37;;;;;;;0.40;0.20;;;;;;;15.49;84.64;95780.72;5134766;27;20475;-56
2023/10/09 03:53:07;;;;;;;0.63;0.47;;;;;;;15.44;85.19;95791.44;5134952;27;20430;-57
2023/10/09 03:55:38;;;;;;;1.07;0.60;;;;;;;15.09;88.65;95782.81;5135396;27;20442;-56
2023/10/09 03:58:06;;;;;;;1.30;0.87;;;;;;;15.13;86.23;95732.31;5134668;27;20477;-56
2023/10/09 04:00:44;;;;;;;0.40;0.30;;;;;;;15.53;87.00;95789.78;5135277;27;20513;-57
2023/10/09 04:03:15;;;;;;;0.40;0.20;;;;;;;15.67;86.09;95779.94;5109217;27;20441;-56
2023/10/09 04:05:45;;;;;;;0.40;0.30;;;;;;;15.60;84.98;95774.16;5134688;27;20434;-56
2023/10/09 04:08:19;;;;;;;0.40;0.30;;;;;;;15.08;85.58;95716.34;5125970;27;20884;-57
2023/10/09 04:11:03;;;;;;;0.50;0.40;;;;;;;15.56;85.35;95787.28;5130552;27;21172;-57
2023/10/09 04:13:35;;;;;;;0.57;0.47;;;;;;;15.31;87.38;95771.59;5134613;27;20945;-57
2023/10/09 04:16:19;;;;;;;0.43;0.30;;;;;;;15.22;88.26;95786.66;5134044;27;20473;-56
2023/10/09 04:18:49;;;;;;;0.40;0.30;;;;;;;15.50;85.51;95796.47;5134532;27;20470;-56
2023/10/09 04:21:18;;;;;;;0.70;0.30;;;;;;;15.67;84.64;95787.94;5134844;27;20439;-56
2023/10/09 04:26:36;;;;;;;0.40;0.30;;;;;;;15.57;85.94;95806.81;5134359;27;20938;-57
2023/10/09 04:29:06;;;;;;;0.50;0.30;;;;;;;15.74;84.15;95807.88;5133937;27;20435;-55
2023/10/09 04:31:37;;;;;;;0.40;0.30;;;;;;;15.66;84.92;95816.53;5133973;27;20487;-56
2023/10/09 04:36:56;;;;;;;0.50;0.30;;;;;;;15.79;83.58;95809.69;5130195;27;20537;-56
2023/10/09 04:39:46;;;;;;;0.50;0.30;;;;;;;15.71;83.84;95808.47;5134224;27;20807;-56
2023/10/09 04:42:36;;;;;;;0.43;0.30;;;;;;;15.83;82.80;95810.72;5134275;27;20439;-56
2023/10/09 04:48:06;;;;;;;0.60;0.33;;;;;;;15.34;87.16;95824.44;5127336;27;20473;-56
2023/10/09 04:51:20;;;;;;;0.50;0.40;;;;;;;15.51;86.61;95827.44;5133868;27;20434;-56
2023/10/09 04:53:43;;;;;;;0.50;0.30;;;;;;;15.83;84.63;95834.75;5133380;27;20441;-56
2023/10/09 04:56:16;;;;;;;1.67;0.43;;;;;;;15.94;83.64;95825.50;5133442;27;20938;-56
2023/10/09 04:58:46;;;;;;;1.07;0.40;;;;;;;15.87;83.33;95833.09;5133617;27;20441;-55
2023/10/09 05:01:14;;;;;;;2.70;1.47;;;;;;;15.79;83.52;95839.09;5133766;27;20450;-55
2023/10/09 05:03:44;;;;;;;0.70;0.67;;;;;;;15.28;87.65;95844.25;5133395;27;20517;-55
2023/10/09 05:06:42;;;;;;;0.70;0.50;;;;;;;15.17;89.52;95851.63;5133047;27;20457;-55
2023/10/09 05:09:14;;;;;;;0.80;0.70;;;;;;;15.37;89.15;95852.44;5133400;27;20434;-56
2023/10/09 05:12:09;;;;;;;0.70;0.70;;;;;;;15.60;85.71;95843.63;5133802;27;20933;-56
2023/10/09 05:14:45;;;;;;;0.87;0.73;;;;;;;15.86;84.55;95844.88;5133472;27;20439;-56
2023/10/09 05:17:16;;;;;;;0.80;0.80;;;;;;;16.19;81.93;95849.19;5133271;27;20448;-56
2023/10/09 05:20:55;;;;;;;1.00;0.97;;;;;;;16.13;81.83;95858.38;5133597;27;20515;-56
2023/10/09 05:23:00;;;;;;;2.83;1.70;;;;;;;16.33;80.77;95859.94;5133180;27;20942;-55
2023/10/09 05:28:30;;;;;;;0.87;0.83;;;;;;;16.02;81.57;95875.66;5132387;27;20449;-55
2023/10/09 05:31:08;;;;;;;0.67;0.67;;;;;;;16.13;82.02;95863.72;5133182;27;20494;-55
2023/10/09 05:33:38;;;;;;;3.87;1.10;;;;;;;15.83;83.31;95856.94;5132288;27;20438;-55
2023/10/09 05:39:16;;;;;;;1.90;1.20;;;;;;;16.73;80.96;95872.69;5133193;27;20445;-56
2023/10/09 05:41:52;;;;;;;0.50;0.43;;;;;;;16.87;79.02;95878.88;5132621;27;20470;-56
2023/10/09 05:47:35;;;;;;;0.93;0.93;;;;;;;17.08;78.52;95877.41;5110326;27;20452;-56
2023/10/09 06:04:18;;;;;;;0.73;0.73;;;;;;;19.31;73.17;95871.25;5106454;27;20817;-57
2023/10/09 06:06:56;;;;;;;0.53;0.53;;;;;;;19.73;68.72;95887.88;5132650;27;20438;-61
2023/10/09 06:09:49;;;;;;;1.07;0.97;;;;;;;19.50;68.45;95893.34;5132443;27;20511;-61
2023/10/09 06:12:33;;;;;;;3.93;2.43;;;;;;;19.93;67.75;95892.66;5132324;27;21014;-60
2023/10/09 06:17:50;;;;;;;0.97;0.97;;;;;;;19.32;70.40;95893.56;5131608;27;20483;-61
2023/10/09 06:21:06;;;;;;;2.17;1.73;;;;;;;19.12;70.67;95905.63;5132511;28;20803;-62
2023/10/09 06:26:24;;;;;;;0.70;0.60;;;;;;;21.12;66.15;95908.03;5132423;28;20434;-59
2023/10/09 06:29:14;;;;;;;0.50;0.40;;;;;;;21.78;62.81;95898.38;5131980;27;20438;-60
2023/10/09 06:32:16;;;;;;;1.30;0.90;;;;;;;22.04;61.83;95901.78;5132221;27;20487;-59
2023/10/09 06:34:46;;;;;;;1.90;0.60;;;;;;;22.23;61.17;95904.03;5132217;27;20438;-59
2023/10/09 06:37:34;;;;;;;0.50;0.30;;;;;;;22.50;59.42;95905.41;5133028;27;20945;-59
2023/10/09 06:41:23;;;;;;;1.57;0.80;;;;;;;22.31;58.70;95875.38;5133846;27;21023;-59
2023/10/09 06:43:26;;;;;;;2.83;0.77;;;;;;;22.55;58.31;95907.91;5131749;27;20442;-59
2023/10/09 06:45:57;;;;;;;4.57;0.70;;;;;;;22.58;56.97;95907.25;5132058;28;20434;-59
2023/10/09 06:48:40;;;;;;;2.50;1.00;;;;;;;22.96;55.76;95851.13;5132292;27;20435;-58
2023/10/09 06:51:15;;;;;;;1.00;1.00;;;;;;;22.41;57.43;95870.38;5131670;28;20438;-59
2023/10/09 06:57:12;;;;;;;4.63;1.03;;;;;;;24.31;54.69;95905.00;5131241;27;20446;-59
2023/10/09 06:59:21;;;;;;;0.87;0.83;;;;;;;24.27;55.17;95896.75;5131096;27;20472;-58
2023/10/09 07:02:25;;;;;;;1.57;1.03;;;;;;;24.06;53.24;95835.72;5132144;28;20474;-58
2023/10/09 07:04:46;;;;;;;12.10;0.90;;;;;;;25.10;52.25;95901.44;5129791;27;20495;-59
2023/10/09 07:07:16;;;;;;;0.47;0.40;;;;;;;25.53;50.54;95908.78;5129304;27;20462;-59
2023/10/09 07:10:28;;;;;;;4.50;0.80;;;;;;;25.75;49.88;95903.50;5129839;28;20470;-59
2023/10/09 07:12:33;;;;;;;2.33;0.90;;;;;;;26.03;49.53;95902.63;5132493;27;20434;-60
2023/10/09 07:16:23;;;;;;;1.30;1.20;;;;;;;26.46;48.90;95905.19;5134566;27;20848;-59
2023/10/09 07:18:18;;;;;;;0.70;0.60;;;;;;;26.63;48.04;95906.69;5135502;27;20494;-58
2023/10/09 07:20:58;;;;;;;0.50;0.40;;;;;;;27.46;45.67;95916.88;5135925;27;20819;-58
2023/10/09 07:23:32;;;;;;;0.60;0.47;;;;;;;28.05;45.20;95905.44;5135624;27;20441;-58
2023/10/09 07:26:23;;;;;;;1.20;1.10;;;;;;;27.55;44.92;95896.44;5135928;27;20438;-57
2023/10/09 07:29:00;;;;;;;1.00;0.90;;;;;;;27.38;46.02;95904.25;5134993;27;20438;-57
2023/10/09 07:31:39;;;;;;;0.90;0.90;;;;;;;27.62;45.02;95901.22;5135603;27;20913;-57
2023/10/09 07:36:56;;;;;;;1.70;0.63;;;;;;;28.40;42.22;95896.97;5136007;27;21005;-56
2023/10/09 07:39:34;;;;;;;0.70;0.70;;;;;;;28.30;41.93;95892.97;5135502;27;20519;-56
2023/10/09 07:42:26;;;;;;;0.67;0.67;;;;;;;28.72;40.64;95893.53;5135752;27;20469;-57
2023/10/09 07:44:58;;;;;;;0.60;0.47;;;;;;;29.52;39.28;95892.09;5135069;27;20438;-57
2023/10/09 07:50:11;;;;;;;3.47;0.30;;;;;;;29.64;36.67;95889.06;5135804;27;20445;-55
2023/10/09 07:52:44;;;;;;;0.40;0.40;;;;;;;29.37;37.13;95879.47;5134568;27;20444;-56
2023/10/09 07:55:26;;;;;;;0.40;0.33;;;;;;;29.47;36.18;95890.47;5134947;27;20438;-56
2023/10/09 07:57:54;;;;;;;0.50;0.30;;;;;;;29.20;35.40;95890.97;5134731;27;20509;-56
2023/10/09 08:01:05;;;;;;;0.50;0.50;;;;;;;28.70;36.21;95893.13;5134997;27;20477;-56
2023/10/09 08:03:32;;;;;;;0.73;0.73;;;;;;;29.82;36.93;95879.13;5134610;27;20448;-55
2023/10/09 08:06:37;;;;;;;0.53;0.50;;;;;;;30.16;34.90;95888.72;5134359;27;20438;-54
2023/10/09 08:12:13;;;;;;;0.57;0.53;;;;;;;29.66;34.89;95892.22;5135172;27;20508;-56
2023/10/09 08:14:43;;;;;;;0.50;0.50;;;;;;;30.31;34.65;95888.81;5111887;27;20949;-56
2023/10/09 08:17:13;;;;;;;0.50;0.40;;;;;;;30.99;33.83;95883.34;5134733;27;20434;-55
2023/10/09 08:19:53;;;;;;;5.20;0.30;;;;;;;31.45;33.12;95882.69;5134687;27;20941;-55
2023/10/09 08:22:50;;;;;;;0.40;0.40;;;;;;;31.78;31.85;95880.34;5133994;27;20474;-56
2023/10/09 08:25:27;;;;;;;0.53;0.40;;;;;;;31.51;32.22;95876.41;5134333;27;20441;-56
2023/10/09 08:28:39;;;;;;;0.50;0.40;;;;;;;31.20;32.64;95877.91;5134532;27;20539;-55
2023/10/09 08:31:02;;;;;;;0.53;0.40;;;;;;;32.04;31.89;95868.22;5134379;27;20452;-56
2023/10/09 08:33:41;;;;;;;0.50;0.40;;;;;;;31.36;30.85;95880.28;5133278;27;20430;-60
2023/10/09 08:36:15;;;;;;;0.67;0.60;;;;;;;31.80;32.06;95879.97;5134321;27;21032;-54
2023/10/09 08:38:44;;;;;;;0.40;0.30;;;;;;;32.22;30.02;95881.91;5134180;27;20430;-55
2023/10/09 08:41:22;;;;;;;6.60;0.37;;;;;;;32.30;31.10;95876.00;5133543;27;20836;-56
2023/10/09 08:43:53;;;;;;;4.97;0.40;;;;;;;32.67;31.18;95870.03;5110385;27;20946;-56
2023/10/09 08:46:26;;;;;;;0.40;0.40;;;;;;;32.41;31.17;95879.50;5133666;27;20438;-55
2023/10/09 08:48:56;;;;;;;0.90;0.60;;;;;;;32.05;31.26;95872.53;5134207;27;21070;-55
2023/10/09 08:51:27;;;;;;;1.07;0.30;;;;;;;32.44;30.94;95870.47;5133722;27;20509;-55
2023/10/09 08:53:56;;;;;;;0.53;0.40;;;;;;;32.18;31.26;95870.91;5134076;27;20444;-55
2023/10/09 08:56:25;;;;;;;0.40;0.30;;;;;;;32.78;31.13;95868.03;5133968;27;20930;-55
2023/10/09 08:58:55;;;;;;;0.87;0.30;;;;;;;32.62;29.86;95864.97;5133810;27;20438;-55
2023/10/09 09:01:24;;;;;;;4.33;0.63;;;;;;;32.98;29.29;95849.09;5133283;27;20466;-55
2023/10/09 09:03:56;;;;;;;0.50;0.30;;;;;;;31.91;29.92;95867.00;5133730;27;20483;-55
2023/10/09 09:06:26;;;;;;;0.40;0.40;;;;;;;31.13;29.67;95860.66;5133889;27;20928;-60
2023/10/09 09:09:13;;;;;;;0.90;0.90;;;;;;;31.30;29.34;95863.44;5133581;27;20493;-60
2023/10/09 09:11:49;;;;;;;0.40;0.30;;;;;;;32.26;29.96;95863.50;5130377;27;21028;-60
2023/10/09 09:14:21;;;;;;;0.40;0.30;;;;;;;31.31;29.97;95771.88;5132845;27;20929;-60
2023/10/09 09:16:52;;;;;;;0.40;0.40;;;;;;;31.60;30.02;95860.34;5133572;27;20433;-60
2023/10/09 09:19:32;;;;;;;0.47;0.30;;;;;;;31.42;30.12;95867.78;5133538;27;20798;-60
2023/10/09 09:22:11;;;;;;;0.30;0.20;;;;;;;32.52;29.28;95852.06;5132981;27;20475;-60
2023/10/09 09:24:46;;;;;;;0.67;0.57;;;;;;;31.49;30.08;95861.53;5133705;27;20438;-61
2023/10/09 09:27:18;;;;;;;0.30;0.20;;;;;;;32.11;30.78;95857.22;5132597;27;20517;-60
2023/10/09 09:29:53;;;;;;;0.30;0.20;;;;;;;32.92;29.97;95851.50;5133267;27;20465;-60
2023/10/09 09:32:35;;;;;;;3.07;0.97;;;;;;;32.51;28.78;95853.22;5133627;27;20445;-61
2023/10/09 09:35:05;;;;;;;0.50;0.40;;;;;;;31.85;28.78;95854.88;5132913;27;20466;-59
2023/10/09 09:37:50;;;;;;;0.40;0.30;;;;;;;31.12;29.24;95870.81;5133399;27;20926;-56
2023/10/09 09:40:29;;;;;;;0.63;0.50;;;;;;;31.35;28.88;95843.09;5132713;27;20441;-55
2023/10/09 09:43:05;;;;;;;0.73;0.73;;;;;;;31.68;28.69;95858.41;5132335;27;20552;-55
2023/10/09 09:45:35;;;;;;;0.50;0.30;;;;;;;31.36;29.43;95853.66;5133247;27;20541;-56
2023/10/09 09:48:06;;;;;;;0.40;0.30;;;;;;;31.63;30.10;95850.56;5132955;27;20521;-56
2023/10/09 09:50:43;;;;;;;0.97;0.30;;;;;;;32.78;29.03;95832.34;5133058;27;20438;-56
2023/10/09 09:53:17;;;;;;;2.50;0.60;;;;;;;31.46;29.59;95843.13;5132660;27;20433;-55
2023/10/09 09:55:55;;;;;;;2.10;0.30;;;;;;;32.81;28.93;95830.75;5132570;27;20521;-55
2023/10/09 09:58:32;;;;;;;0.60;0.40;;;;;;;32.99;27.67;95821.22;5132686;27;20438;-55
2023/10/09 10:01:15;;;;;;;0.40;0.40;;;;;;;31.28;29.83;95832.13;5131888;27;21021;-56
2023/10/09 10:03:49;;;;;;;0.57;0.37;;;;;;;30.60;31.00;95828.41;5132980;27;20441;-56
2023/10/09 10:06:20;;;;;;;0.50;0.40;;;;;;;31.06;30.99;95820.38;5132801;27;20441;-56
2023/10/09 10:08:52;;;;;;;0.30;0.30;;;;;;;32.44;30.83;95796.38;5132340;27;20470;-56
2023/10/09 10:11:45;;;;;;;0.30;0.20;;;;;;;32.19;30.89;95809.41;5132553;27;20512;-55
2023/10/09 10:14:21;;;;;;;1.40;1.30;;;;;;;31.86;30.93;95810.63;5123213;28;20495;-55
2023/10/09 10:17:16;;;;;;;0.40;0.30;;;;;;;31.75;31.63;95814.56;5132563;28;20490;-56
2023/10/09 10:23:20;;;;;;;0.80;0.50;;;;;;;33.32;29.89;95786.13;5102148;28;20541;-56
2023/10/09 10:25:50;;;;;;;0.30;0.20;;;;;;;32.42;29.67;95784.25;5133014;27;20442;-56
2023/10/09 10:28:35;;;;;;;0.40;0.30;;;;;;;32.64;28.52;95770.03;5132568;28;20479;-56
2023/10/09 10:31:07;;;;;;;0.40;0.40;;;;;;;32.01;29.94;95770.25;5132554;28;20811;-56
2023/10/09 10:34:07;;;;;;;0.53;0.50;;;;;;;33.07;30.04;95769.81;5132267;27;20976;-55
2023/10/09 10:36:35;;;;;;;0.77;0.33;;;;;;;32.34;30.38;95764.28;5125554;28;20452;-55
2023/10/09 10:39:09;;;;;;;0.40;0.40;;;;;;;31.89;30.42;95751.47;5132711;27;20437;-56
2023/10/09 10:41:50;;;;;;;0.40;0.30;;;;;;;32.48;29.90;95749.72;5131657;28;20462;-53
2023/10/09 10:44:36;;;;;;;0.40;0.30;;;;;;;34.00;28.47;95746.66;5132448;28;20446;-55
2023/10/09 10:47:21;;;;;;;0.50;0.30;;;;;;;34.94;28.20;95743.13;5112800;27;20433;-53
2023/10/09 10:49:51;;;;;;;0.50;0.30;;;;;;;35.02;26.10;95741.81;5136409;27;20438;-54
2023/10/09 10:52:22;;;;;;;0.40;0.30;;;;;;;35.31;25.63;95733.91;5136386;27;20472;-54
2023/10/09 11:03:29;;;;;;;0.60;0.40;;;;;;;32.53;29.72;95725.44;5110737;27;20481;-55
2023/10/09 11:06:13;;;;;;;0.50;0.40;;;;;;;31.20;30.20;95730.00;5135517;27;20433;-55
2023/10/09 11:08:54;;;;;;;0.40;0.30;;;;;;;31.22;31.41;95722.16;5135768;27;20465;-55
2023/10/09 11:11:23;;;;;;;0.67;0.50;;;;;;;31.03;28.63;95724.50;5135924;27;20438;-56
2023/10/09 11:13:57;;;;;;;0.30;0.20;;;;;;;31.47;28.12;95729.63;5136160;27;20506;-60
2023/10/09 11:19:31;;;;;;;3.60;0.47;;;;;;;32.82;26.75;95693.06;5129228;27;20444;-60
2023/10/09 11:24:44;;;;;;;0.50;0.30;;;;;;;33.00;26.75;95709.41;5126229;27;20473;-60
2023/10/09 11:27:18;;;;;;;0.30;0.30;;;;;;;34.27;25.56;95702.72;5135676;27;20429;-60
2023/10/09 11:29:54;;;;;;;2.33;0.40;;;;;;;31.93;26.69;95648.03;5135380;27;20483;-60
2023/10/09 11:32:23;;;;;;;0.33;0.27;;;;;;;32.78;26.49;95691.53;5135464;27;20441;-60
2023/10/09 11:35:11;;;;;;;6.23;0.50;;;;;;;32.36;26.34;95704.28;5135349;27;20445;-60
2023/10/09 11:37:39;;;;;;;0.40;0.30;;;;;;;31.92;26.63;95699.38;5135116;27;20438;-60
2023/10/09 11:40:23;;;;;;;0.40;0.30;;;;;;;31.56;26.45;95673.22;5134757;27;20517;-60
2023/10/09 11:42:50;;;;;;;0.40;0.30;;;;;;;31.61;26.84;95692.00;5135123;27;20488;-65
2023/10/09 11:45:28;;;;;;;0.40;0.30;;;;;;;31.84;25.96;95686.88;5108848;27;20487;-62
2023/10/09 11:47:59;;;;;;;0.30;0.27;;;;;;;31.86;26.94;95670.00;5134485;27;20442;-65
2023/10/09 11:50:50;;;;;;;0.40;0.30;;;;;;;33.16;25.37;95669.28;5135027;27;20477;-66
2023/10/09 11:53:33;;;;;;;0.53;0.50;;;;;;;31.53;25.44;95640.34;5134652;27;20509;-62
2023/10/09 11:56:02;;;;;;;0.37;0.30;;;;;;;31.17;26.07;95659.56;5135295;27;20963;-63
2023/10/09 11:58:31;;;;;;;0.50;0.30;;;;;;;31.40;26.21;95657.19;5134723;27;20430;-66
2023/10/09 12:01:16;;;;;;;0.50;0.30;;;;;;;32.00;25.89;95661.78;5134462;27;20430;-66
2023/10/09 12:03:49;;;;;;;0.43;0.43;;;;;;;32.60;25.15;95648.53;5135122;27;20477;-63
2023/10/09 12:06:22;;;;;;;13.53;0.70;;;;;;;32.60;24.51;95610.09;5134356;27;20430;-64
2023/10/09 12:08:53;;;;;;;0.40;0.30;;;;;;;32.47;25.61;95658.38;5134490;27;20465;-63
2023/10/09 12:11:28;;;;;;;0.43;0.30;;;;;;;32.70;24.98;95641.38;5134644;27;20997;-64
2023/10/09 12:14:00;;;;;;;1.17;0.50;;;;;;;33.34;24.79;95635.38;5134186;27;20441;-63
2023/10/09 12:16:32;;;;;;;0.40;0.30;;;;;;;33.13;23.90;95637.13;5135327;27;20457;-61
2023/10/09 12:19:02;;;;;;;0.30;0.30;;;;;;;33.70;23.75;95639.34;5134569;27;20434;-64
2023/10/09 12:21:32;;;;;;;0.40;0.30;;;;;;;32.62;24.33;95642.63;5134355;27;20438;-63
2023/10/09 12:24:00;;;;;;;0.53;0.30;;;;;;;32.22;25.64;95638.53;5134489;27;20477;-63
2023/10/09 12:26:42;;;;;;;0.67;0.60;;;;;;;30.60;25.74;95616.94;5134584;27;20430;-66
2023/10/09 12:29:11;;;;;;;0.87;0.67;;;;;;;29.42;26.58;95647.75;5108505;27;20465;-58
2023/10/09 12:31:45;;;;;;;0.40;0.30;;;;;;;29.64;26.71;95656.84;5133872;27;20445;-58
2023/10/09 12:34:16;;;;;;;0.40;0.30;;;;;;;28.73;26.66;95536.94;5134614;27;20429;-60
2023/10/09 12:36:46;;;;;;;0.40;0.30;;;;;;;30.09;26.35;95664.47;5134235;27;20875;-64
2023/10/09 12:39:18;;;;;;;0.90;0.50;;;;;;;30.47;26.79;95652.09;5134442;27;20964;-64
2023/10/09 12:41:46;;;;;;;1.73;0.37;;;;;;;31.24;26.00;95656.06;5134010;27;20441;-63
2023/10/09 12:44:18;;;;;;;0.67;0.37;;;;;;;28.81;26.88;95664.06;5134615;27;20545;-62
2023/10/09 12:46:53;;;;;;;0.40;0.30;;;;;;;28.23;27.79;95655.69;5133839;27;20434;-64
2023/10/09 12:49:25;;;;;;;0.40;0.30;;;;;;;29.27;26.85;95645.31;5134169;27;20438;-62
2023/10/09 12:51:54;;;;;;;0.43;0.40;;;;;;;29.67;26.08;95656.09;5134039;27;20461;-58
2023/10/09 12:54:26;;;;;;;0.50;0.47;;;;;;;30.14;25.64;95641.44;5133501;27;21010;-58
2023/10/09 12:56:56;;;;;;;0.70;0.40;;;;;;;30.57;25.46;95639.59;5133716;27;20462;-59
2023/10/09 12:59:24;;;;;;;0.37;0.30;;;;;;;30.30;26.15;95625.47;5134444;27;20437;-59
2023/10/09 13:01:57;;;;;;;0.77;0.40;;;;;;;30.45;25.04;95632.56;5133946;27;20494;-58
2023/10/09 13:04:31;;;;;;;1.40;0.63;;;;;;;29.70;26.05;95628.00;5133210;27;20473;-59
2023/10/09 13:07:04;;;;;;;0.40;0.30;;;;;;;30.04;25.67;95631.25;5133665;27;20975;-58
2023/10/09 13:09:42;;;;;;;0.40;0.30;;;;;;;30.03;25.57;95624.25;5133187;27;20438;-59
2023/10/09 13:12:17;;;;;;;0.77;0.77;;;;;;;29.60;25.65;95620.50;5133391;27;20463;-58
2023/10/09 13:14:49;;;;;;;0.70;0.30;;;;;;;30.19;25.18;95611.78;5133407;27;20608;-59
2023/10/09 13:17:21;;;;;;;0.70;0.33;;;;;;;30.64;25.06;95623.97;5133770;27;20444;-66
2023/10/09 13:19:50;;;;;;;0.60;0.60;;;;;;;28.71;26.30;95619.16;5133936;27;20452;-57
2023/10/09 13:22:18;;;;;;;0.60;0.60;;;;;;;29.12;25.48;95619.06;5133370;27;20462;-57